<?xml version="1.0" encoding="UTF-8" standalone="no" ?>
<gpx xmlns="http://www.topografix.com/GPX/1/1" xmlns:xsi="http://www.w3.org/2001/XMLSchema-instance" xsi:schemaLocation="http://www.topografix.com/GPX/1/1 http://www.topografix.com/GPX/1/1/gpx.xsd" version="1.1" creator="VisuGPX - https://www.visugpx.com">
  <metadata>
    <name>Vacances 2021</name>
  </metadata>
  <trk>
    <name><![CDATA[Journal actif: 2021-07-23 17:38]]></name>
    <trkseg>
      <trkpt lat="49.20682" lon="5.36295">
        <ele>194.8</ele>
        <time>2021-07-23T19:38:33Z</time>
      </trkpt>
      <trkpt lat="49.20666" lon="5.36269">
        <ele>194.8</ele>
        <time>2021-07-23T19:38:43Z</time>
      </trkpt>
      <trkpt lat="49.20663" lon="5.36263">
        <ele>194.8</ele>
        <time>2021-07-23T19:38:44Z</time>
      </trkpt>
      <trkpt lat="49.20659" lon="5.36256">
        <ele>195.28</ele>
        <time>2021-07-23T19:38:45Z</time>
      </trkpt>
      <trkpt lat="49.20655" lon="5.36247">
        <ele>195.28</ele>
        <time>2021-07-23T19:38:46Z</time>
      </trkpt>
      <trkpt lat="49.20651" lon="5.36238">
        <ele>195.28</ele>
        <time>2021-07-23T19:38:47Z</time>
      </trkpt>
      <trkpt lat="49.20647" lon="5.36227">
        <ele>195.28</ele>
        <time>2021-07-23T19:38:48Z</time>
      </trkpt>
      <trkpt lat="49.20583" lon="5.36057">
        <ele>194.32</ele>
        <time>2021-07-23T19:39:00Z</time>
      </trkpt>
      <trkpt lat="49.20517" lon="5.35848">
        <ele>196.25</ele>
        <time>2021-07-23T19:39:13Z</time>
      </trkpt>
      <trkpt lat="49.20456" lon="5.35623">
        <ele>195.28</ele>
        <time>2021-07-23T19:39:27Z</time>
      </trkpt>
      <trkpt lat="49.2043" lon="5.35569">
        <ele>197.21</ele>
        <time>2021-07-23T19:39:33Z</time>
      </trkpt>
      <trkpt lat="49.20372" lon="5.35457">
        <ele>199.61</ele>
        <time>2021-07-23T19:39:43Z</time>
      </trkpt>
      <trkpt lat="49.20251" lon="5.35256">
        <ele>207.78</ele>
        <time>2021-07-23T19:39:54Z</time>
      </trkpt>
      <trkpt lat="49.20124" lon="5.35108">
        <ele>214.51</ele>
        <time>2021-07-23T19:40:04Z</time>
      </trkpt>
      <trkpt lat="49.19951" lon="5.3489">
        <ele>212.11</ele>
        <time>2021-07-23T19:40:16Z</time>
      </trkpt>
      <trkpt lat="49.19804" lon="5.3473">
        <ele>205.38</ele>
        <time>2021-07-23T19:40:25Z</time>
      </trkpt>
      <trkpt lat="49.19735" lon="5.3458">
        <ele>201.53</ele>
        <time>2021-07-23T19:40:33Z</time>
      </trkpt>
      <trkpt lat="49.19691" lon="5.34487">
        <ele>199.61</ele>
        <time>2021-07-23T19:40:37Z</time>
      </trkpt>
      <trkpt lat="49.19679" lon="5.34464">
        <ele>199.61</ele>
        <time>2021-07-23T19:40:38Z</time>
      </trkpt>
      <trkpt lat="49.19665" lon="5.34446">
        <ele>199.13</ele>
        <time>2021-07-23T19:40:39Z</time>
      </trkpt>
      <trkpt lat="49.19482" lon="5.34217">
        <ele>197.69</ele>
        <time>2021-07-23T19:40:51Z</time>
      </trkpt>
      <trkpt lat="49.19468" lon="5.34205">
        <ele>197.69</ele>
        <time>2021-07-23T19:40:52Z</time>
      </trkpt>
      <trkpt lat="49.19453" lon="5.34194">
        <ele>196.73</ele>
        <time>2021-07-23T19:40:53Z</time>
      </trkpt>
      <trkpt lat="49.19423" lon="5.34175">
        <ele>195.77</ele>
        <time>2021-07-23T19:40:54Z</time>
      </trkpt>
      <trkpt lat="49.19423" lon="5.34175">
        <ele>195.77</ele>
        <time>2021-07-23T19:40:55Z</time>
      </trkpt>
      <trkpt lat="49.19389" lon="5.34166">
        <ele>196.25</ele>
        <time>2021-07-23T19:40:56Z</time>
      </trkpt>
      <trkpt lat="49.19389" lon="5.34166">
        <ele>195.77</ele>
        <time>2021-07-23T19:40:57Z</time>
      </trkpt>
      <trkpt lat="49.19373" lon="5.34168">
        <ele>195.28</ele>
        <time>2021-07-23T19:40:58Z</time>
      </trkpt>
      <trkpt lat="49.19355" lon="5.34172">
        <ele>194.8</ele>
        <time>2021-07-23T19:40:59Z</time>
      </trkpt>
      <trkpt lat="49.1927" lon="5.34189">
        <ele>193.36</ele>
        <time>2021-07-23T19:41:04Z</time>
      </trkpt>
      <trkpt lat="49.19236" lon="5.34187">
        <ele>192.4</ele>
        <time>2021-07-23T19:41:05Z</time>
      </trkpt>
      <trkpt lat="49.18983" lon="5.34135">
        <ele>190.48</ele>
        <time>2021-07-23T19:41:20Z</time>
      </trkpt>
      <trkpt lat="49.18932" lon="5.34122">
        <ele>190</ele>
        <time>2021-07-23T19:41:23Z</time>
      </trkpt>
      <trkpt lat="49.18916" lon="5.34115">
        <ele>190</ele>
        <time>2021-07-23T19:41:24Z</time>
      </trkpt>
      <trkpt lat="49.18899" lon="5.34107">
        <ele>190.96</ele>
        <time>2021-07-23T19:41:25Z</time>
      </trkpt>
      <trkpt lat="49.18886" lon="5.34094">
        <ele>190.96</ele>
        <time>2021-07-23T19:41:26Z</time>
      </trkpt>
      <trkpt lat="49.18871" lon="5.34079">
        <ele>191.92</ele>
        <time>2021-07-23T19:41:27Z</time>
      </trkpt>
      <trkpt lat="49.18857" lon="5.34065">
        <ele>192.4</ele>
        <time>2021-07-23T19:41:28Z</time>
      </trkpt>
      <trkpt lat="49.18845" lon="5.34047">
        <ele>192.88</ele>
        <time>2021-07-23T19:41:29Z</time>
      </trkpt>
      <trkpt lat="49.18645" lon="5.33712">
        <ele>195.77</ele>
        <time>2021-07-23T19:41:45Z</time>
      </trkpt>
      <trkpt lat="49.18567" lon="5.33594">
        <ele>195.77</ele>
        <time>2021-07-23T19:41:51Z</time>
      </trkpt>
      <trkpt lat="49.18554" lon="5.33584">
        <ele>196.25</ele>
        <time>2021-07-23T19:41:52Z</time>
      </trkpt>
      <trkpt lat="49.1854" lon="5.33574">
        <ele>196.73</ele>
        <time>2021-07-23T19:41:53Z</time>
      </trkpt>
      <trkpt lat="49.18526" lon="5.33571">
        <ele>197.69</ele>
        <time>2021-07-23T19:41:54Z</time>
      </trkpt>
      <trkpt lat="49.18512" lon="5.33571">
        <ele>197.21</ele>
        <time>2021-07-23T19:41:55Z</time>
      </trkpt>
      <trkpt lat="49.18498" lon="5.33571">
        <ele>197.21</ele>
        <time>2021-07-23T19:41:56Z</time>
      </trkpt>
      <trkpt lat="49.18485" lon="5.33579">
        <ele>196.25</ele>
        <time>2021-07-23T19:41:57Z</time>
      </trkpt>
      <trkpt lat="49.1847" lon="5.33589">
        <ele>196.25</ele>
        <time>2021-07-23T19:41:58Z</time>
      </trkpt>
      <trkpt lat="49.18443" lon="5.33611">
        <ele>196.25</ele>
        <time>2021-07-23T19:41:59Z</time>
      </trkpt>
      <trkpt lat="49.18261" lon="5.33813">
        <ele>191.92</ele>
        <time>2021-07-23T19:42:13Z</time>
      </trkpt>
      <trkpt lat="49.18001" lon="5.34099">
        <ele>191.44</ele>
        <time>2021-07-23T19:42:30Z</time>
      </trkpt>
      <trkpt lat="49.17659" lon="5.34474">
        <ele>190</ele>
        <time>2021-07-23T19:42:51Z</time>
      </trkpt>
      <trkpt lat="49.1753" lon="5.34617">
        <ele>189.04</ele>
        <time>2021-07-23T19:43:00Z</time>
      </trkpt>
      <trkpt lat="49.17338" lon="5.34828">
        <ele>188.56</ele>
        <time>2021-07-23T19:43:17Z</time>
      </trkpt>
      <trkpt lat="49.17142" lon="5.3504">
        <ele>189.52</ele>
        <time>2021-07-23T19:43:35Z</time>
      </trkpt>
      <trkpt lat="49.17013" lon="5.35188">
        <ele>190</ele>
        <time>2021-07-23T19:43:49Z</time>
      </trkpt>
      <trkpt lat="49.16996" lon="5.35204">
        <ele>190.48</ele>
        <time>2021-07-23T19:43:51Z</time>
      </trkpt>
      <trkpt lat="49.16918" lon="5.35285">
        <ele>191.44</ele>
        <time>2021-07-23T19:44:02Z</time>
      </trkpt>
      <trkpt lat="49.16817" lon="5.35412">
        <ele>192.4</ele>
        <time>2021-07-23T19:44:13Z</time>
      </trkpt>
      <trkpt lat="49.16811" lon="5.35425">
        <ele>192.4</ele>
        <time>2021-07-23T19:44:14Z</time>
      </trkpt>
      <trkpt lat="49.16739" lon="5.35612">
        <ele>192.4</ele>
        <time>2021-07-23T19:44:27Z</time>
      </trkpt>
      <trkpt lat="49.16642" lon="5.35876">
        <ele>193.36</ele>
        <time>2021-07-23T19:44:42Z</time>
      </trkpt>
      <trkpt lat="49.16596" lon="5.36004">
        <ele>197.69</ele>
        <time>2021-07-23T19:44:53Z</time>
      </trkpt>
      <trkpt lat="49.16522" lon="5.36202">
        <ele>198.65</ele>
        <time>2021-07-23T19:45:06Z</time>
      </trkpt>
      <trkpt lat="49.1645" lon="5.36393">
        <ele>197.21</ele>
        <time>2021-07-23T19:45:19Z</time>
      </trkpt>
      <trkpt lat="49.16413" lon="5.36505">
        <ele>194.32</ele>
        <time>2021-07-23T19:45:31Z</time>
      </trkpt>
      <trkpt lat="49.16407" lon="5.36536">
        <ele>193.84</ele>
        <time>2021-07-23T19:45:32Z</time>
      </trkpt>
      <trkpt lat="49.16407" lon="5.36536">
        <ele>193.36</ele>
        <time>2021-07-23T19:45:33Z</time>
      </trkpt>
      <trkpt lat="49.16406" lon="5.36552">
        <ele>193.36</ele>
        <time>2021-07-23T19:45:34Z</time>
      </trkpt>
      <trkpt lat="49.16404" lon="5.36595">
        <ele>192.4</ele>
        <time>2021-07-23T19:45:37Z</time>
      </trkpt>
      <trkpt lat="49.16403" lon="5.36605">
        <ele>191.92</ele>
        <time>2021-07-23T19:45:38Z</time>
      </trkpt>
      <trkpt lat="49.16377" lon="5.36757">
        <ele>189.52</ele>
        <time>2021-07-23T19:45:49Z</time>
      </trkpt>
      <trkpt lat="49.16371" lon="5.36791">
        <ele>189.52</ele>
        <time>2021-07-23T19:45:52Z</time>
      </trkpt>
      <trkpt lat="49.16369" lon="5.36808">
        <ele>190</ele>
        <time>2021-07-23T19:45:53Z</time>
      </trkpt>
      <trkpt lat="49.16371" lon="5.37024">
        <ele>192.4</ele>
        <time>2021-07-23T19:46:05Z</time>
      </trkpt>
      <trkpt lat="49.16371" lon="5.3704">
        <ele>192.88</ele>
        <time>2021-07-23T19:46:06Z</time>
      </trkpt>
      <trkpt lat="49.16378" lon="5.37087">
        <ele>194.32</ele>
        <time>2021-07-23T19:46:10Z</time>
      </trkpt>
      <trkpt lat="49.16379" lon="5.37096">
        <ele>194.32</ele>
        <time>2021-07-23T19:46:11Z</time>
      </trkpt>
      <trkpt lat="49.1638" lon="5.37104">
        <ele>193.84</ele>
        <time>2021-07-23T19:46:12Z</time>
      </trkpt>
      <trkpt lat="49.16381" lon="5.37111">
        <ele>193.84</ele>
        <time>2021-07-23T19:46:13Z</time>
      </trkpt>
      <trkpt lat="49.16375" lon="5.37122">
        <ele>193.84</ele>
        <time>2021-07-23T19:46:14Z</time>
      </trkpt>
      <trkpt lat="49.16371" lon="5.37122">
        <ele>194.32</ele>
        <time>2021-07-23T19:46:15Z</time>
      </trkpt>
      <trkpt lat="49.16371" lon="5.37122">
        <ele>194.32</ele>
        <time>2021-07-23T19:46:16Z</time>
      </trkpt>
      <trkpt lat="49.16358" lon="5.37118">
        <ele>194.8</ele>
        <time>2021-07-23T19:46:17Z</time>
      </trkpt>
      <trkpt lat="49.16352" lon="5.3711">
        <ele>195.28</ele>
        <time>2021-07-23T19:46:18Z</time>
      </trkpt>
      <trkpt lat="49.16347" lon="5.371">
        <ele>195.28</ele>
        <time>2021-07-23T19:46:19Z</time>
      </trkpt>
      <trkpt lat="49.16342" lon="5.3709">
        <ele>195.28</ele>
        <time>2021-07-23T19:46:20Z</time>
      </trkpt>
      <trkpt lat="49.16278" lon="5.36956">
        <ele>194.32</ele>
        <time>2021-07-23T19:46:30Z</time>
      </trkpt>
      <trkpt lat="49.16169" lon="5.36839">
        <ele>195.77</ele>
        <time>2021-07-23T19:46:39Z</time>
      </trkpt>
      <trkpt lat="49.16048" lon="5.36775">
        <ele>196.73</ele>
        <time>2021-07-23T19:46:49Z</time>
      </trkpt>
      <trkpt lat="49.15949" lon="5.36732">
        <ele>200.09</ele>
        <time>2021-07-23T19:46:56Z</time>
      </trkpt>
      <trkpt lat="49.15937" lon="5.36726">
        <ele>199.61</ele>
        <time>2021-07-23T19:46:57Z</time>
      </trkpt>
      <trkpt lat="49.15925" lon="5.36714">
        <ele>199.61</ele>
        <time>2021-07-23T19:46:58Z</time>
      </trkpt>
      <trkpt lat="49.15839" lon="5.366">
        <ele>200.57</ele>
        <time>2021-07-23T19:47:08Z</time>
      </trkpt>
      <trkpt lat="49.15781" lon="5.36483">
        <ele>199.61</ele>
        <time>2021-07-23T19:47:19Z</time>
      </trkpt>
      <trkpt lat="49.15766" lon="5.3646">
        <ele>201.05</ele>
        <time>2021-07-23T19:47:25Z</time>
      </trkpt>
      <trkpt lat="49.15765" lon="5.36463">
        <ele>201.53</ele>
        <time>2021-07-23T19:47:26Z</time>
      </trkpt>
      <trkpt lat="49.15762" lon="5.36468">
        <ele>202.01</ele>
        <time>2021-07-23T19:47:27Z</time>
      </trkpt>
      <trkpt lat="49.15705" lon="5.36544">
        <ele>206.82</ele>
        <time>2021-07-23T19:47:37Z</time>
      </trkpt>
      <trkpt lat="49.15667" lon="5.36583">
        <ele>209.22</ele>
        <time>2021-07-23T19:47:42Z</time>
      </trkpt>
      <trkpt lat="49.1566" lon="5.36588">
        <ele>209.7</ele>
        <time>2021-07-23T19:47:43Z</time>
      </trkpt>
      <trkpt lat="49.15654" lon="5.36593">
        <ele>210.67</ele>
        <time>2021-07-23T19:47:44Z</time>
      </trkpt>
      <trkpt lat="49.15647" lon="5.36593">
        <ele>210.67</ele>
        <time>2021-07-23T19:47:45Z</time>
      </trkpt>
      <trkpt lat="49.1564" lon="5.36591">
        <ele>211.15</ele>
        <time>2021-07-23T19:47:46Z</time>
      </trkpt>
      <trkpt lat="49.15632" lon="5.3659">
        <ele>211.63</ele>
        <time>2021-07-23T19:47:47Z</time>
      </trkpt>
      <trkpt lat="49.15625" lon="5.36588">
        <ele>212.11</ele>
        <time>2021-07-23T19:47:48Z</time>
      </trkpt>
      <trkpt lat="49.15606" lon="5.36575">
        <ele>214.03</ele>
        <time>2021-07-23T19:47:54Z</time>
      </trkpt>
      <trkpt lat="49.15597" lon="5.36567">
        <ele>215.47</ele>
        <time>2021-07-23T19:47:59Z</time>
      </trkpt>
      <trkpt lat="49.15594" lon="5.36562">
        <ele>215.47</ele>
        <time>2021-07-23T19:48:00Z</time>
      </trkpt>
      <trkpt lat="49.15591" lon="5.36558">
        <ele>215.95</ele>
        <time>2021-07-23T19:48:01Z</time>
      </trkpt>
      <trkpt lat="49.15587" lon="5.36558">
        <ele>215.95</ele>
        <time>2021-07-23T19:48:02Z</time>
      </trkpt>
      <trkpt lat="49.15583" lon="5.36561">
        <ele>215.95</ele>
        <time>2021-07-23T19:48:03Z</time>
      </trkpt>
      <trkpt lat="49.1558" lon="5.36566">
        <ele>215.47</ele>
        <time>2021-07-23T19:48:04Z</time>
      </trkpt>
      <trkpt lat="49.1558" lon="5.36572">
        <ele>214.99</ele>
        <time>2021-07-23T19:48:05Z</time>
      </trkpt>
      <trkpt lat="49.15581" lon="5.36579">
        <ele>214.99</ele>
        <time>2021-07-23T19:48:06Z</time>
      </trkpt>
      <trkpt lat="49.15582" lon="5.36585">
        <ele>214.51</ele>
        <time>2021-07-23T19:48:07Z</time>
      </trkpt>
      <trkpt lat="49.15582" lon="5.36592">
        <ele>214.03</ele>
        <time>2021-07-23T19:48:08Z</time>
      </trkpt>
      <trkpt lat="49.15582" lon="5.366">
        <ele>213.55</ele>
        <time>2021-07-23T19:48:09Z</time>
      </trkpt>
      <trkpt lat="49.15582" lon="5.36716">
        <ele>209.22</ele>
        <time>2021-07-23T19:48:19Z</time>
      </trkpt>
      <trkpt lat="49.15583" lon="5.36726">
        <ele>208.74</ele>
        <time>2021-07-23T19:48:20Z</time>
      </trkpt>
      <trkpt lat="49.15583" lon="5.36734">
        <ele>208.26</ele>
        <time>2021-07-23T19:48:21Z</time>
      </trkpt>
      <trkpt lat="49.15584" lon="5.3674">
        <ele>207.78</ele>
        <time>2021-07-23T19:48:22Z</time>
      </trkpt>
      <trkpt lat="49.15582" lon="5.36746">
        <ele>207.78</ele>
        <time>2021-07-23T19:48:23Z</time>
      </trkpt>
      <trkpt lat="49.15581" lon="5.36751">
        <ele>207.3</ele>
        <time>2021-07-23T19:48:24Z</time>
      </trkpt>
      <trkpt lat="49.15576" lon="5.36755">
        <ele>206.34</ele>
        <time>2021-07-23T19:48:25Z</time>
      </trkpt>
      <trkpt lat="49.15572" lon="5.36755">
        <ele>205.38</ele>
        <time>2021-07-23T19:48:26Z</time>
      </trkpt>
      <trkpt lat="49.15567" lon="5.36756">
        <ele>204.9</ele>
        <time>2021-07-23T19:48:27Z</time>
      </trkpt>
      <trkpt lat="49.15561" lon="5.36757">
        <ele>203.94</ele>
        <time>2021-07-23T19:48:28Z</time>
      </trkpt>
      <trkpt lat="49.15553" lon="5.36756">
        <ele>203.46</ele>
        <time>2021-07-23T19:48:29Z</time>
      </trkpt>
      <trkpt lat="49.15549" lon="5.3675">
        <ele>202.98</ele>
        <time>2021-07-23T19:48:30Z</time>
      </trkpt>
      <trkpt lat="49.15544" lon="5.36743">
        <ele>202.98</ele>
        <time>2021-07-23T19:48:31Z</time>
      </trkpt>
      <trkpt lat="49.15468" lon="5.36623">
        <ele>202.01</ele>
        <time>2021-07-23T19:48:44Z</time>
      </trkpt>
      <trkpt lat="49.15462" lon="5.36613">
        <ele>201.53</ele>
        <time>2021-07-23T19:48:45Z</time>
      </trkpt>
      <trkpt lat="49.15454" lon="5.36605">
        <ele>200.57</ele>
        <time>2021-07-23T19:48:46Z</time>
      </trkpt>
      <trkpt lat="49.15403" lon="5.3656">
        <ele>198.17</ele>
        <time>2021-07-23T19:48:55Z</time>
      </trkpt>
      <trkpt lat="49.15387" lon="5.36561">
        <ele>196.73</ele>
        <time>2021-07-23T19:49:05Z</time>
      </trkpt>
    </trkseg>
  </trk>
</gpx>